Anzahl Datensätze: 283
min. Temperatur: 0.3 °C
max. Temperatur: 10.5 °C
max. Windgeschwindigkeit: 6.3 km/h
Niederschlagsumme: 0.2 mm
| Datum |
Zeit |
Temp °C |
Feuchte % |
Taupunkt °C |
Luftdruck hPa |
Wind km/h |
Windrichtung |
Strahlung w/m² |
Niederschlag mm |
|---|---|---|---|---|---|---|---|---|---|
| 31.03.2026 | 00:03 | 2.3 | 91 | 1.0 | 1024.1 | 0.4 | NW | 0 | 0.0 |
| 31.03.2026 | 00:08 | 2.2 | 91 | 0.9 | 1024.2 | 0.0 | NW | 0 | 0.0 |
| 31.03.2026 | 00:13 | 2.1 | 91 | 0.8 | 1024.2 | 0.0 | NW | 0 | 0.0 |
| 31.03.2026 | 00:18 | 2.1 | 91 | 0.8 | 1024.3 | 0.4 | NW | 0 | 0.0 |
| 31.03.2026 | 00:23 | 2.1 | 91 | 0.8 | 1024.3 | 0.4 | NW | 0 | 0.0 |
| 31.03.2026 | 00:28 | 2.1 | 91 | 0.8 | 1024.3 | 0.9 | NW | 0 | 0.0 |
| 31.03.2026 | 00:33 | 2.0 | 91 | 0.7 | 1024.3 | 0.0 | NW | 0 | 0.0 |
| 31.03.2026 | 00:38 | 2.0 | 91 | 0.7 | 1024.4 | 0.9 | NW | 0 | 0.0 |
| 31.03.2026 | 00:43 | 1.9 | 91 | 0.6 | 1024.4 | 0.9 | NW | 0 | 0.0 |
| 31.03.2026 | 00:48 | 1.8 | 91 | 0.5 | 1024.4 | 0.4 | NW | 0 | 0.0 |
| 31.03.2026 | 00:53 | 1.7 | 91 | 0.4 | 1024.5 | 0.0 | NW | 0 | 0.0 |
| 31.03.2026 | 00:58 | 1.6 | 91 | 0.3 | 1024.5 | 0.0 | NW | 0 | 0.0 |
| 31.03.2026 | 01:03 | 1.5 | 91 | 0.2 | 1024.5 | 0.0 | NW | 0 | 0.0 |
| 31.03.2026 | 01:08 | 1.5 | 91 | 0.2 | 1024.5 | 0.4 | NW | 0 | 0.0 |
| 31.03.2026 | 01:13 | 1.4 | 91 | 0.1 | 1024.5 | 0.0 | NW | 0 | 0.0 |
| 31.03.2026 | 01:18 | 1.4 | 91 | 0.1 | 1024.6 | 0.0 | NW | 0 | 0.0 |
| 31.03.2026 | 01:23 | 1.3 | 91 | 0.0 | 1024.6 | 0.4 | NW | 0 | 0.0 |
| 31.03.2026 | 01:28 | 1.3 | 91 | 0.0 | 1024.7 | 0.9 | NNW | 0 | 0.0 |
| 31.03.2026 | 01:33 | 1.4 | 92 | 0.2 | 1024.7 | 0.9 | WSW | 0 | 0.0 |
| 31.03.2026 | 01:38 | 1.5 | 92 | 0.3 | 1024.7 | 0.9 | NW | 0 | 0.0 |
| 31.03.2026 | 01:43 | 1.6 | 92 | 0.4 | 1024.8 | 0.4 | NW | 0 | 0.0 |
| 31.03.2026 | 01:48 | 1.6 | 92 | 0.4 | 1024.8 | 0.0 | NW | 0 | 0.0 |
| 31.03.2026 | 01:53 | 1.6 | 92 | 0.4 | 1024.8 | 0.0 | NW | 0 | 0.0 |
| 31.03.2026 | 01:58 | 1.5 | 92 | 0.3 | 1024.8 | 0.9 | NW | 0 | 0.0 |
| 31.03.2026 | 02:03 | 1.5 | 92 | 0.3 | 1024.9 | 0.0 | NW | 0 | 0.0 |
| 31.03.2026 | 02:09 | 1.4 | 92 | 0.2 | 1024.9 | 0.0 | NW | 0 | 0.0 |
| 31.03.2026 | 02:14 | 1.4 | 92 | 0.2 | 1024.9 | 0.0 | NW | 0 | 0.0 |
| 31.03.2026 | 02:19 | 1.3 | 92 | 0.1 | 1025.0 | 0.4 | NW | 0 | 0.0 |
| 31.03.2026 | 02:24 | 1.3 | 92 | 0.1 | 1025.0 | 0.0 | NW | 0 | 0.0 |
| 31.03.2026 | 02:29 | 1.3 | 92 | 0.1 | 1025.1 | 0.4 | NW | 0 | 0.0 |
| 31.03.2026 | 02:34 | 1.1 | 92 | -0.1 | 1025.2 | 0.0 | NW | 0 | 0.0 |
| 31.03.2026 | 02:39 | 1.0 | 92 | -0.2 | 1025.2 | 0.4 | NW | 0 | 0.0 |
| 31.03.2026 | 02:44 | 1.0 | 92 | -0.2 | 1025.3 | 0.0 | NW | 0 | 0.0 |
| 31.03.2026 | 02:49 | 0.9 | 92 | -0.3 | 1025.3 | 0.4 | NW | 0 | 0.0 |
| 31.03.2026 | 02:54 | 0.9 | 92 | -0.3 | 1025.3 | 0.0 | NW | 0 | 0.0 |
| 31.03.2026 | 02:59 | 0.9 | 92 | -0.3 | 1025.4 | 0.0 | NW | 0 | 0.0 |
| 31.03.2026 | 03:04 | 0.9 | 92 | -0.3 | 1025.3 | 0.0 | NW | 0 | 0.0 |
| 31.03.2026 | 03:09 | 0.9 | 92 | -0.3 | 1025.3 | 0.0 | NW | 0 | 0.0 |
| 31.03.2026 | 03:14 | 0.8 | 92 | -0.4 | 1025.4 | 0.4 | NW | 0 | 0.0 |
| 31.03.2026 | 03:19 | 0.9 | 92 | -0.3 | 1025.4 | 0.4 | NW | 0 | 0.0 |
| 31.03.2026 | 03:24 | 0.9 | 92 | -0.3 | 1025.5 | 0.4 | NW | 0 | 0.0 |
| 31.03.2026 | 03:29 | 0.9 | 92 | -0.3 | 1025.5 | 0.4 | NW | 0 | 0.0 |
| 31.03.2026 | 03:34 | 0.9 | 92 | -0.3 | 1025.6 | 0.0 | NW | 0 | 0.0 |
| 31.03.2026 | 03:39 | 0.8 | 92 | -0.4 | 1025.7 | 0.4 | NW | 0 | 0.0 |
| 31.03.2026 | 03:44 | 0.8 | 93 | -0.2 | 1025.8 | 0.0 | NW | 0 | 0.0 |
| 31.03.2026 | 03:49 | 0.8 | 93 | -0.2 | 1025.9 | 0.4 | NW | 0 | 0.0 |
| 31.03.2026 | 03:54 | 0.9 | 93 | -0.1 | 1025.9 | 0.0 | NW | 0 | 0.0 |
| 31.03.2026 | 03:59 | 1.0 | 93 | 0.0 | 1025.9 | 0.0 | NW | 0 | 0.0 |
| 31.03.2026 | 04:04 | 1.1 | 93 | 0.1 | 1026.0 | 0.0 | NW | 0 | 0.0 |
| 31.03.2026 | 04:09 | 1.0 | 93 | 0.0 | 1026.1 | 0.0 | NW | 0 | 0.0 |
| 31.03.2026 | 04:14 | 1.0 | 93 | 0.0 | 1026.1 | 0.0 | NW | 0 | 0.0 |
| 31.03.2026 | 04:19 | 0.9 | 93 | -0.1 | 1026.2 | 0.0 | NW | 0 | 0.0 |
| 31.03.2026 | 04:24 | 0.7 | 93 | -0.3 | 1026.2 | 0.0 | NW | 0 | 0.0 |
| 31.03.2026 | 04:29 | 0.6 | 93 | -0.4 | 1026.3 | 0.0 | NW | 0 | 0.0 |
| 31.03.2026 | 04:34 | 0.5 | 93 | -0.5 | 1026.3 | 0.0 | NW | 0 | 0.0 |
| 31.03.2026 | 04:39 | 0.4 | 93 | -0.6 | 1026.3 | 0.0 | NW | 0 | 0.0 |
| 31.03.2026 | 04:49 | 0.4 | 93 | -0.6 | 1026.4 | 0.4 | NW | 0 | 0.0 |
| 31.03.2026 | 04:59 | 0.5 | 93 | -0.5 | 1026.5 | 0.4 | NW | 0 | 0.0 |
| 31.03.2026 | 05:04 | 0.5 | 93 | -0.5 | 1026.4 | 0.0 | NW | 0 | 0.0 |
| 31.03.2026 | 05:10 | 0.6 | 93 | -0.4 | 1026.4 | 0.0 | NW | 0 | 0.0 |
| 31.03.2026 | 05:15 | 0.8 | 93 | -0.2 | 1026.4 | 0.0 | NW | 0 | 0.0 |
| 31.03.2026 | 05:20 | 0.9 | 93 | -0.1 | 1026.4 | 0.4 | NW | 0 | 0.0 |
| 31.03.2026 | 05:25 | 1.0 | 93 | 0.0 | 1026.4 | 0.4 | NW | 0 | 0.0 |
| 31.03.2026 | 05:30 | 1.1 | 93 | 0.1 | 1026.4 | 0.4 | NW | 0 | 0.0 |
| 31.03.2026 | 05:35 | 1.3 | 93 | 0.3 | 1026.5 | 0.4 | NW | 0 | 0.0 |
| 31.03.2026 | 05:40 | 1.3 | 93 | 0.3 | 1026.4 | 0.0 | NW | 0 | 0.0 |
| 31.03.2026 | 05:45 | 1.4 | 93 | 0.4 | 1026.5 | 0.4 | NW | 0 | 0.0 |
| 31.03.2026 | 05:50 | 1.4 | 93 | 0.4 | 1026.6 | 0.4 | NW | 0 | 0.0 |
| 31.03.2026 | 05:55 | 1.3 | 93 | 0.3 | 1026.5 | 1.3 | NW | 0 | 0.0 |
| 31.03.2026 | 06:00 | 1.3 | 93 | 0.3 | 1026.4 | 0.9 | NW | 0 | 0.0 |
| 31.03.2026 | 06:05 | 1.3 | 93 | 0.3 | 1026.4 | 0.9 | NW | 0 | 0.0 |
| 31.03.2026 | 06:10 | 1.2 | 93 | 0.2 | 1026.5 | 1.3 | NW | 0 | 0.0 |
| 31.03.2026 | 06:15 | 1.2 | 93 | 0.2 | 1026.4 | 0.4 | NW | 0 | 0.0 |
| 31.03.2026 | 06:20 | 1.1 | 93 | 0.1 | 1026.4 | 0.9 | NW | 0 | 0.0 |
| 31.03.2026 | 06:25 | 1.0 | 93 | 0.0 | 1026.6 | 0.9 | NW | 0 | 0.0 |
| 31.03.2026 | 06:30 | 1.0 | 93 | 0.0 | 1026.6 | 0.4 | NW | 0 | 0.0 |
| 31.03.2026 | 06:35 | 0.9 | 93 | -0.1 | 1026.6 | 0.9 | NW | 0 | 0.0 |
| 31.03.2026 | 06:40 | 0.9 | 93 | -0.1 | 1026.7 | 0.9 | NW | 0 | 0.0 |
| 31.03.2026 | 06:45 | 0.9 | 93 | -0.1 | 1026.7 | 0.4 | NW | 0 | 0.0 |
| 31.03.2026 | 06:50 | 0.9 | 93 | -0.1 | 1026.8 | 0.4 | NW | 0 | 0.0 |
| 31.03.2026 | 06:55 | 0.8 | 93 | -0.2 | 1026.9 | 0.4 | NW | 0 | 0.0 |
| 31.03.2026 | 07:00 | 0.8 | 93 | -0.2 | 1026.9 | 0.0 | NW | 0 | 0.0 |
| 31.03.2026 | 07:05 | 0.6 | 93 | -0.4 | 1027.0 | 0.4 | NW | 0 | 0.0 |
| 31.03.2026 | 07:10 | 0.5 | 93 | -0.5 | 1027.0 | 0.4 | NW | 0 | 0.0 |
| 31.03.2026 | 07:15 | 0.5 | 93 | -0.5 | 1027.1 | 0.4 | NW | 0 | 0.0 |
| 31.03.2026 | 07:20 | 0.5 | 93 | -0.5 | 1027.2 | 0.4 | NW | 5 | 0.0 |
| 31.03.2026 | 07:25 | 0.4 | 93 | -0.6 | 1027.3 | 0.0 | NW | 9 | 0.0 |
| 31.03.2026 | 07:31 | 0.4 | 93 | -0.6 | 1027.4 | 0.0 | NW | 12 | 0.0 |
| 31.03.2026 | 07:36 | 0.3 | 93 | -0.7 | 1027.4 | 0.0 | NW | 18 | 0.0 |
| 31.03.2026 | 07:41 | 0.4 | 93 | -0.6 | 1027.5 | 0.4 | NW | 23 | 0.0 |
| 31.03.2026 | 07:46 | 0.4 | 93 | -0.6 | 1027.6 | 0.4 | NW | 30 | 0.0 |
| 31.03.2026 | 07:51 | 0.5 | 93 | -0.5 | 1027.7 | 0.4 | NW | 33 | 0.0 |
| 31.03.2026 | 07:56 | 0.6 | 93 | -0.4 | 1027.7 | 0.0 | NW | 42 | 0.0 |
| 31.03.2026 | 08:01 | 0.8 | 93 | -0.2 | 1027.8 | 0.0 | NW | 54 | 0.0 |
| 31.03.2026 | 08:06 | 0.9 | 93 | -0.1 | 1027.8 | 0.4 | NW | 56 | 0.0 |
| 31.03.2026 | 08:11 | 1.0 | 93 | 0.0 | 1027.8 | 0.0 | NW | 53 | 0.0 |
| 31.03.2026 | 08:16 | 1.2 | 93 | 0.2 | 1027.9 | 0.0 | NW | 69 | 0.0 |
| 31.03.2026 | 08:21 | 1.4 | 93 | 0.4 | 1028.0 | 0.4 | NW | 40 | 0.0 |
| 31.03.2026 | 08:26 | 1.4 | 93 | 0.4 | 1028.0 | 0.0 | NW | 53 | 0.0 |
| 31.03.2026 | 08:31 | 1.4 | 93 | 0.4 | 1028.1 | 0.4 | NW | 42 | 0.0 |
| 31.03.2026 | 08:36 | 1.3 | 93 | 0.3 | 1028.1 | 0.0 | NW | 46 | 0.0 |
| 31.03.2026 | 08:41 | 1.4 | 93 | 0.4 | 1028.2 | 0.4 | NW | 155 | 0.0 |
| 31.03.2026 | 08:46 | 1.5 | 93 | 0.5 | 1028.1 | 0.4 | NW | 171 | 0.0 |
| 31.03.2026 | 08:51 | 1.9 | 93 | 0.9 | 1028.1 | 0.4 | WNW | 186 | 0.0 |
| 31.03.2026 | 08:56 | 2.1 | 93 | 1.1 | 1028.2 | 0.0 | WNW | 160 | 0.0 |
| 31.03.2026 | 09:01 | 2.4 | 93 | 1.4 | 1028.4 | 0.0 | WNW | 220 | 0.2 |
| 31.03.2026 | 09:06 | 2.8 | 93 | 1.8 | 1028.2 | 0.4 | WNW | 241 | 0.2 |
| 31.03.2026 | 09:11 | 3.0 | 93 | 2.0 | 1028.3 | 0.4 | WNW | 255 | 0.2 |
| 31.03.2026 | 09:16 | 3.2 | 93 | 2.2 | 1028.3 | 0.0 | WNW | 274 | 0.2 |
| 31.03.2026 | 09:21 | 3.4 | 93 | 2.4 | 1028.4 | 0.4 | WNW | 287 | 0.2 |
| 31.03.2026 | 09:26 | 3.8 | 93 | 2.8 | 1028.4 | 0.0 | WNW | 297 | 0.2 |
| 31.03.2026 | 09:31 | 4.0 | 93 | 3.0 | 1028.4 | 0.9 | NW | 325 | 0.2 |
| 31.03.2026 | 09:36 | 4.3 | 93 | 3.3 | 1028.4 | 0.9 | W | 334 | 0.2 |
| 31.03.2026 | 09:41 | 4.4 | 92 | 3.2 | 1028.5 | 0.9 | W | 397 | 0.2 |
| 31.03.2026 | 09:46 | 4.6 | 92 | 3.4 | 1028.6 | 0.4 | NW | 420 | 0.2 |
| 31.03.2026 | 09:51 | 4.8 | 92 | 3.6 | 1028.6 | 1.3 | NW | 362 | 0.2 |
| 31.03.2026 | 09:56 | 4.9 | 91 | 3.6 | 1028.6 | 0.4 | NW | 455 | 0.2 |
| 31.03.2026 | 10:01 | 5.3 | 91 | 4.0 | 1028.6 | 0.9 | WSW | 508 | 0.2 |
| 31.03.2026 | 10:06 | 5.5 | 91 | 4.1 | 1028.5 | 0.0 | W | 383 | 0.2 |
| 31.03.2026 | 10:11 | 5.7 | 90 | 4.2 | 1028.5 | 1.3 | W | 563 | 0.2 |
| 31.03.2026 | 10:16 | 5.6 | 88 | 3.8 | 1028.6 | 0.9 | WNW | 533 | 0.2 |
| 31.03.2026 | 10:21 | 5.4 | 88 | 3.6 | 1028.6 | 0.4 | WSW | 146 | 0.2 |
| 31.03.2026 | 10:26 | 5.4 | 87 | 3.4 | 1028.5 | 0.9 | WSW | 478 | 0.2 |
| 31.03.2026 | 10:31 | 5.6 | 88 | 3.8 | 1028.5 | 0.4 | NW | 494 | 0.2 |
| 31.03.2026 | 10:37 | 5.9 | 88 | 4.1 | 1028.5 | 0.4 | WSW | 529 | 0.2 |
| 31.03.2026 | 10:42 | 6.0 | 87 | 4.0 | 1028.5 | 0.4 | NW | 258 | 0.2 |
| 31.03.2026 | 10:47 | 6.3 | 86 | 4.1 | 1028.5 | 0.9 | SW | 584 | 0.2 |
| 31.03.2026 | 10:52 | 6.4 | 85 | 4.1 | 1028.6 | 0.9 | NNW | 156 | 0.2 |
| 31.03.2026 | 10:57 | 6.5 | 84 | 4.0 | 1028.5 | 0.9 | NW | 652 | 0.2 |
| 31.03.2026 | 11:02 | 6.7 | 85 | 4.4 | 1028.5 | 0.4 | WSW | 628 | 0.2 |
| 31.03.2026 | 11:07 | 6.9 | 84 | 4.4 | 1028.5 | 0.4 | WNW | 216 | 0.2 |
| 31.03.2026 | 11:12 | 7.0 | 83 | 4.3 | 1028.4 | 1.3 | WSW | 682 | 0.2 |
| 31.03.2026 | 11:17 | 7.3 | 83 | 4.6 | 1028.4 | 3.6 | WNW | 628 | 0.2 |
| 31.03.2026 | 11:22 | 7.6 | 80 | 4.4 | 1028.4 | 3.6 | NNW | 635 | 0.2 |
| 31.03.2026 | 11:27 | 7.9 | 76 | 3.9 | 1028.5 | 2.2 | WNW | 663 | 0.2 |
| 31.03.2026 | 11:32 | 8.2 | 76 | 4.2 | 1028.5 | 1.3 | NO | 682 | 0.2 |
| 31.03.2026 | 11:37 | 8.4 | 74 | 4.0 | 1028.5 | 0.9 | WNW | 682 | 0.2 |
| 31.03.2026 | 11:42 | 8.6 | 73 | 4.0 | 1028.5 | 0.9 | NW | 673 | 0.2 |
| 31.03.2026 | 11:47 | 8.9 | 73 | 4.3 | 1028.5 | 2.2 | NW | 643 | 0.2 |
| 31.03.2026 | 11:52 | 9.1 | 71 | 4.1 | 1028.5 | 1.8 | NW | 209 | 0.2 |
| 31.03.2026 | 11:57 | 8.9 | 69 | 3.5 | 1028.5 | 2.2 | NW | 176 | 0.2 |
| 31.03.2026 | 12:02 | 8.6 | 69 | 3.2 | 1028.5 | 0.9 | W | 211 | 0.2 |
| 31.03.2026 | 12:07 | 8.6 | 71 | 3.6 | 1028.4 | 2.2 | NNW | 849 | 0.2 |
| 31.03.2026 | 12:12 | 8.7 | 70 | 3.5 | 1028.5 | 1.3 | W | 95 | 0.2 |
| 31.03.2026 | 12:17 | 8.5 | 68 | 2.9 | 1028.5 | 0.9 | WNW | 227 | 0.2 |
| 31.03.2026 | 12:22 | 8.6 | 69 | 3.2 | 1028.5 | 2.7 | NW | 264 | 0.2 |
| 31.03.2026 | 12:27 | 8.8 | 67 | 3.0 | 1028.5 | 1.3 | WNW | 299 | 0.2 |
| 31.03.2026 | 12:32 | 8.8 | 67 | 3.0 | 1028.6 | 1.8 | NW | 380 | 0.2 |
| 31.03.2026 | 12:37 | 8.7 | 66 | 2.7 | 1028.5 | 1.3 | W | 360 | 0.2 |
| 31.03.2026 | 12:42 | 8.8 | 67 | 3.0 | 1028.5 | 1.3 | NW | 366 | 0.2 |
| 31.03.2026 | 12:47 | 8.8 | 66 | 2.8 | 1028.5 | 1.3 | NNW | 441 | 0.2 |
| 31.03.2026 | 12:52 | 8.8 | 66 | 2.8 | 1028.5 | 1.3 | NW | 388 | 0.2 |
| 31.03.2026 | 12:57 | 8.9 | 67 | 3.1 | 1028.5 | 1.3 | W | 427 | 0.2 |
| 31.03.2026 | 13:02 | 9.0 | 66 | 3.0 | 1028.5 | 0.9 | WNW | 381 | 0.2 |
| 31.03.2026 | 13:07 | 9.1 | 65 | 2.9 | 1028.4 | 2.2 | NW | 392 | 0.2 |
| 31.03.2026 | 13:12 | 9.1 | 65 | 2.9 | 1028.5 | 0.9 | NW | 392 | 0.2 |
| 31.03.2026 | 13:17 | 9.2 | 66 | 3.2 | 1028.5 | 4.5 | NW | 381 | 0.2 |
| 31.03.2026 | 13:23 | 9.3 | 65 | 3.1 | 1028.6 | 3.1 | W | 304 | 0.2 |
| 31.03.2026 | 13:28 | 9.1 | 64 | 2.6 | 1028.6 | 0.9 | WSW | 353 | 0.2 |
| 31.03.2026 | 13:33 | 9.1 | 65 | 2.9 | 1028.6 | 1.3 | NNW | 315 | 0.2 |
| 31.03.2026 | 13:38 | 9.0 | 64 | 2.6 | 1028.5 | 0.9 | NNW | 227 | 0.2 |
| 31.03.2026 | 13:43 | 8.8 | 64 | 2.4 | 1028.5 | 0.9 | W | 253 | 0.2 |
| 31.03.2026 | 13:48 | 8.6 | 65 | 2.4 | 1028.5 | 0.9 | WNW | 255 | 0.2 |
| 31.03.2026 | 13:53 | 8.7 | 67 | 2.9 | 1028.4 | 2.2 | NW | 269 | 0.2 |
| 31.03.2026 | 13:58 | 8.9 | 66 | 2.9 | 1028.4 | 2.2 | SO | 983 | 0.2 |
| 31.03.2026 | 14:03 | 9.5 | 65 | 3.2 | 1028.5 | 1.3 | NNW | 325 | 0.2 |
| 31.03.2026 | 14:08 | 9.6 | 63 | 2.9 | 1028.5 | 0.9 | NW | 292 | 0.2 |
| 31.03.2026 | 14:13 | 9.4 | 62 | 2.5 | 1028.5 | 1.8 | NW | 276 | 0.2 |
| 31.03.2026 | 14:18 | 9.4 | 65 | 3.2 | 1028.4 | 1.8 | NW | 299 | 0.2 |
| 31.03.2026 | 14:23 | 9.4 | 64 | 2.9 | 1028.3 | 0.4 | NW | 424 | 0.2 |
| 31.03.2026 | 14:28 | 9.6 | 64 | 3.1 | 1028.3 | 0.9 | NW | 227 | 0.2 |
| 31.03.2026 | 14:33 | 9.6 | 62 | 2.7 | 1028.3 | 3.1 | W | 376 | 0.2 |
| 31.03.2026 | 14:38 | 9.6 | 64 | 3.1 | 1028.2 | 2.2 | NW | 420 | 0.2 |
| 31.03.2026 | 14:43 | 9.6 | 62 | 2.7 | 1028.3 | 4.5 | NW | 309 | 0.2 |
| 31.03.2026 | 14:48 | 9.6 | 62 | 2.7 | 1028.2 | 2.7 | SW | 424 | 0.2 |
| 31.03.2026 | 14:53 | 10.0 | 62 | 3.1 | 1028.1 | 1.8 | NNW | 534 | 0.2 |
| 31.03.2026 | 14:58 | 10.1 | 59 | 2.4 | 1028.1 | 2.7 | NW | 330 | 0.2 |
| 31.03.2026 | 15:03 | 10.1 | 59 | 2.4 | 1028.0 | 1.8 | SW | 346 | 0.2 |
| 31.03.2026 | 15:08 | 10.1 | 60 | 2.7 | 1028.1 | 0.9 | NW | 262 | 0.2 |
| 31.03.2026 | 15:13 | 9.9 | 60 | 2.5 | 1028.1 | 1.3 | SW | 334 | 0.2 |
| 31.03.2026 | 15:18 | 10.0 | 63 | 3.3 | 1028.0 | 1.8 | N | 1041 | 0.2 |
| 31.03.2026 | 15:23 | 10.3 | 62 | 3.3 | 1027.9 | 1.3 | NNW | 420 | 0.2 |
| 31.03.2026 | 15:28 | 10.5 | 61 | 3.3 | 1027.9 | 0.4 | NW | 380 | 0.2 |
| 31.03.2026 | 15:33 | 10.4 | 60 | 3.0 | 1027.9 | 1.3 | WSW | 359 | 0.2 |
| 31.03.2026 | 15:38 | 10.1 | 62 | 3.1 | 1027.9 | 0.9 | WNW | 253 | 0.2 |
| 31.03.2026 | 15:43 | 10.0 | 62 | 3.1 | 1027.9 | 2.7 | NW | 239 | 0.2 |
| 31.03.2026 | 15:48 | 9.9 | 63 | 3.2 | 1028.0 | 1.8 | NW | 241 | 0.2 |
| 31.03.2026 | 15:58 | 9.4 | 63 | 2.7 | 1027.8 | 3.6 | WNW | 213 | 0.2 |
| 31.03.2026 | 16:03 | 9.4 | 64 | 2.9 | 1027.8 | 2.2 | WNW | 214 | 0.2 |
| 31.03.2026 | 16:08 | 9.4 | 63 | 2.7 | 1027.7 | 0.4 | NNW | 209 | 0.2 |
| 31.03.2026 | 16:13 | 9.4 | 63 | 2.7 | 1027.7 | 3.1 | NW | 279 | 0.2 |
| 31.03.2026 | 16:19 | 9.4 | 64 | 2.9 | 1027.7 | 0.9 | NW | 248 | 0.2 |
| 31.03.2026 | 16:24 | 9.4 | 62 | 2.5 | 1027.6 | 1.3 | WNW | 230 | 0.2 |
| 31.03.2026 | 16:29 | 9.5 | 63 | 2.8 | 1027.7 | 1.8 | NNW | 250 | 0.2 |
| 31.03.2026 | 16:34 | 9.5 | 62 | 2.6 | 1027.7 | 1.3 | NW | 244 | 0.2 |
| 31.03.2026 | 16:39 | 9.5 | 62 | 2.6 | 1027.7 | 0.9 | NW | 265 | 0.2 |
| 31.03.2026 | 16:44 | 9.6 | 62 | 2.7 | 1027.7 | 1.3 | NNW | 265 | 0.2 |
| 31.03.2026 | 16:49 | 9.7 | 61 | 2.5 | 1027.6 | 0.9 | NW | 202 | 0.2 |
| 31.03.2026 | 16:54 | 9.8 | 62 | 2.9 | 1027.7 | 1.3 | SW | 195 | 0.2 |
| 31.03.2026 | 16:59 | 9.8 | 62 | 2.9 | 1027.7 | 1.3 | NW | 172 | 0.2 |
| 31.03.2026 | 17:04 | 9.6 | 62 | 2.7 | 1027.7 | 0.9 | NW | 156 | 0.2 |
| 31.03.2026 | 17:09 | 9.5 | 63 | 2.8 | 1027.5 | 1.3 | NW | 148 | 0.2 |
| 31.03.2026 | 17:14 | 9.4 | 63 | 2.7 | 1027.5 | 0.4 | NW | 132 | 0.2 |
| 31.03.2026 | 17:19 | 9.3 | 63 | 2.6 | 1027.5 | 0.4 | WNW | 107 | 0.2 |
| 31.03.2026 | 17:24 | 9.2 | 64 | 2.7 | 1027.4 | 0.4 | NW | 91 | 0.2 |
| 31.03.2026 | 17:29 | 9.0 | 64 | 2.6 | 1027.4 | 0.4 | WNW | 86 | 0.2 |
| 31.03.2026 | 17:34 | 9.0 | 65 | 2.8 | 1027.4 | 0.9 | NW | 102 | 0.2 |
| 31.03.2026 | 17:39 | 8.9 | 66 | 2.9 | 1027.4 | 0.4 | NW | 98 | 0.2 |
| 31.03.2026 | 17:44 | 8.9 | 67 | 3.1 | 1027.4 | 0.4 | NW | 91 | 0.2 |
| 31.03.2026 | 17:49 | 8.9 | 67 | 3.1 | 1027.4 | 0.4 | NW | 79 | 0.2 |
| 31.03.2026 | 17:54 | 8.9 | 67 | 3.1 | 1027.4 | 0.9 | NW | 65 | 0.2 |
| 31.03.2026 | 17:59 | 8.8 | 66 | 2.8 | 1027.3 | 0.9 | NW | 53 | 0.2 |
| 31.03.2026 | 18:04 | 8.7 | 66 | 2.7 | 1027.4 | 0.4 | N | 51 | 0.2 |
| 31.03.2026 | 18:09 | 8.6 | 67 | 2.8 | 1027.4 | 0.9 | NW | 51 | 0.2 |
| 31.03.2026 | 18:14 | 8.5 | 67 | 2.7 | 1027.5 | 0.4 | NW | 53 | 0.2 |
| 31.03.2026 | 18:19 | 8.5 | 66 | 2.5 | 1027.5 | 0.4 | NW | 54 | 0.2 |
| 31.03.2026 | 18:24 | 8.5 | 66 | 2.5 | 1027.5 | 0.4 | NW | 54 | 0.2 |
| 31.03.2026 | 18:29 | 8.4 | 66 | 2.4 | 1027.6 | 0.9 | NW | 62 | 0.2 |
| 31.03.2026 | 18:34 | 8.4 | 66 | 2.4 | 1027.6 | 0.9 | NW | 62 | 0.2 |
| 31.03.2026 | 18:39 | 8.4 | 66 | 2.4 | 1027.6 | 0.4 | NW | 51 | 0.2 |
| 31.03.2026 | 18:44 | 8.3 | 67 | 2.5 | 1027.7 | 0.9 | NW | 44 | 0.2 |
| 31.03.2026 | 18:49 | 8.3 | 67 | 2.5 | 1027.7 | 0.4 | NW | 35 | 0.2 |
| 31.03.2026 | 18:54 | 8.3 | 68 | 2.7 | 1027.7 | 0.4 | NW | 32 | 0.2 |
| 31.03.2026 | 18:59 | 8.2 | 68 | 2.6 | 1027.7 | 0.4 | WNW | 25 | 0.2 |
| 31.03.2026 | 19:04 | 8.1 | 69 | 2.8 | 1027.7 | 1.3 | NW | 25 | 0.2 |
| 31.03.2026 | 19:09 | 8.1 | 69 | 2.8 | 1027.7 | 0.4 | W | 32 | 0.2 |
| 31.03.2026 | 19:15 | 8.0 | 70 | 2.9 | 1027.6 | 1.3 | NW | 33 | 0.2 |
| 31.03.2026 | 19:20 | 8.0 | 70 | 2.9 | 1027.6 | 0.9 | NW | 30 | 0.2 |
| 31.03.2026 | 19:25 | 8.0 | 71 | 3.1 | 1027.6 | 0.0 | NNW | 23 | 0.2 |
| 31.03.2026 | 19:30 | 7.9 | 71 | 3.0 | 1027.6 | 1.3 | NW | 23 | 0.2 |
| 31.03.2026 | 19:35 | 7.9 | 72 | 3.2 | 1027.6 | 0.9 | WNW | 19 | 0.2 |
| 31.03.2026 | 19:40 | 7.8 | 72 | 3.1 | 1027.6 | 0.4 | NW | 16 | 0.2 |
| 31.03.2026 | 19:45 | 7.8 | 72 | 3.1 | 1027.6 | 0.4 | NW | 18 | 0.2 |
| 31.03.2026 | 19:50 | 7.7 | 73 | 3.2 | 1027.7 | 0.0 | NW | 14 | 0.2 |
| 31.03.2026 | 19:55 | 7.6 | 73 | 3.1 | 1027.6 | 0.4 | NW | 14 | 0.2 |
| 31.03.2026 | 20:00 | 7.6 | 73 | 3.1 | 1027.6 | 0.9 | NW | 7 | 0.2 |
| 31.03.2026 | 20:05 | 7.5 | 73 | 3.0 | 1027.6 | 0.4 | NW | 5 | 0.2 |
| 31.03.2026 | 20:10 | 7.5 | 74 | 3.2 | 1027.7 | 0.9 | NW | 0 | 0.2 |
| 31.03.2026 | 20:15 | 7.4 | 74 | 3.1 | 1027.7 | 0.4 | NW | 0 | 0.2 |
| 31.03.2026 | 20:20 | 7.3 | 75 | 3.2 | 1027.7 | 0.0 | NW | 0 | 0.2 |
| 31.03.2026 | 20:25 | 7.1 | 75 | 3.0 | 1027.8 | 0.0 | NW | 0 | 0.2 |
| 31.03.2026 | 20:30 | 7.0 | 75 | 2.9 | 1027.8 | 0.4 | NW | 0 | 0.2 |
| 31.03.2026 | 20:35 | 7.0 | 76 | 3.1 | 1027.8 | 0.0 | NW | 0 | 0.2 |
| 31.03.2026 | 20:40 | 6.9 | 76 | 3.0 | 1027.8 | 0.0 | NW | 0 | 0.2 |
| 31.03.2026 | 20:45 | 6.7 | 77 | 3.0 | 1027.9 | 0.0 | NW | 0 | 0.2 |
| 31.03.2026 | 20:50 | 6.6 | 77 | 2.9 | 1027.9 | 0.0 | NW | 0 | 0.2 |
| 31.03.2026 | 20:55 | 6.5 | 78 | 2.9 | 1027.9 | 0.0 | NW | 0 | 0.2 |
| 31.03.2026 | 21:00 | 6.4 | 78 | 2.8 | 1027.9 | 0.0 | NW | 0 | 0.2 |
| 31.03.2026 | 21:05 | 6.3 | 79 | 2.9 | 1027.9 | 0.0 | NW | 0 | 0.2 |
| 31.03.2026 | 21:10 | 6.2 | 79 | 2.8 | 1027.8 | 0.0 | NW | 0 | 0.2 |
| 31.03.2026 | 21:15 | 6.0 | 80 | 2.8 | 1027.8 | 0.0 | NW | 0 | 0.2 |
| 31.03.2026 | 21:20 | 5.9 | 80 | 2.7 | 1027.9 | 0.0 | NW | 0 | 0.2 |
| 31.03.2026 | 21:25 | 5.6 | 81 | 2.6 | 1027.9 | 0.0 | NW | 0 | 0.2 |
| 31.03.2026 | 21:30 | 5.4 | 81 | 2.4 | 1028.0 | 0.0 | NW | 0 | 0.2 |
| 31.03.2026 | 21:35 | 5.1 | 81 | 2.1 | 1028.0 | 0.0 | NW | 0 | 0.2 |
| 31.03.2026 | 21:40 | 4.9 | 81 | 1.9 | 1028.0 | 0.0 | NW | 0 | 0.2 |
| 31.03.2026 | 21:45 | 4.7 | 82 | 1.9 | 1028.0 | 0.0 | NW | 0 | 0.2 |
| 31.03.2026 | 21:50 | 4.5 | 82 | 1.7 | 1028.0 | 0.0 | NW | 0 | 0.2 |
| 31.03.2026 | 21:55 | 4.4 | 83 | 1.8 | 1028.0 | 0.0 | NW | 0 | 0.2 |
| 31.03.2026 | 22:01 | 4.3 | 83 | 1.7 | 1028.0 | 0.0 | NW | 0 | 0.2 |
| 31.03.2026 | 22:06 | 4.2 | 84 | 1.7 | 1028.0 | 0.0 | NW | 0 | 0.2 |
| 31.03.2026 | 22:11 | 4.1 | 84 | 1.6 | 1028.0 | 0.0 | NW | 0 | 0.2 |
| 31.03.2026 | 22:16 | 4.1 | 84 | 1.6 | 1028.0 | 0.0 | NW | 0 | 0.2 |
| 31.03.2026 | 22:21 | 4.0 | 85 | 1.7 | 1028.1 | 0.0 | NW | 0 | 0.2 |
| 31.03.2026 | 22:26 | 3.9 | 85 | 1.6 | 1028.1 | 0.0 | NW | 0 | 0.2 |
| 31.03.2026 | 22:31 | 3.9 | 85 | 1.6 | 1028.1 | 0.0 | NW | 0 | 0.2 |
| 31.03.2026 | 22:36 | 3.8 | 86 | 1.7 | 1028.1 | 0.0 | NW | 0 | 0.2 |
| 31.03.2026 | 22:41 | 3.7 | 86 | 1.6 | 1028.1 | 0.4 | NW | 0 | 0.2 |
| 31.03.2026 | 22:46 | 3.6 | 86 | 1.5 | 1028.1 | 0.0 | NW | 0 | 0.2 |
| 31.03.2026 | 22:51 | 3.5 | 86 | 1.4 | 1028.2 | 0.4 | NW | 0 | 0.2 |
| 31.03.2026 | 22:56 | 3.5 | 87 | 1.5 | 1028.1 | 0.0 | NW | 0 | 0.2 |
| 31.03.2026 | 23:01 | 3.5 | 87 | 1.5 | 1028.1 | 0.4 | NW | 0 | 0.2 |
| 31.03.2026 | 23:06 | 3.4 | 87 | 1.4 | 1028.1 | 0.0 | NW | 0 | 0.2 |
| 31.03.2026 | 23:11 | 3.4 | 87 | 1.4 | 1028.1 | 0.0 | NW | 0 | 0.2 |
| 31.03.2026 | 23:16 | 3.3 | 87 | 1.3 | 1028.0 | 0.0 | NW | 0 | 0.2 |
| 31.03.2026 | 23:21 | 3.3 | 87 | 1.3 | 1028.0 | 0.0 | NW | 0 | 0.2 |
| 31.03.2026 | 23:26 | 3.2 | 88 | 1.4 | 1028.0 | 0.0 | NW | 0 | 0.2 |
| 31.03.2026 | 23:31 | 3.2 | 88 | 1.4 | 1028.0 | 0.0 | NW | 0 | 0.2 |
| 31.03.2026 | 23:36 | 3.2 | 88 | 1.4 | 1028.1 | 0.0 | NW | 0 | 0.2 |
| 31.03.2026 | 23:41 | 3.2 | 88 | 1.4 | 1028.1 | 0.0 | NW | 0 | 0.2 |
| 31.03.2026 | 23:46 | 3.3 | 88 | 1.5 | 1028.1 | 0.0 | NW | 0 | 0.2 |
| 31.03.2026 | 23:51 | 3.3 | 88 | 1.5 | 1028.0 | 0.0 | NW | 0 | 0.2 |
| 31.03.2026 | 23:56 | 3.4 | 89 | 1.8 | 1028.1 | 0.0 | NW | 0 | 0.2 |